Bailey Creek, Kentucky
Current Conditions -  °F | °C
As of 4:35 AM on Thursday 27 Nov 2014 (Local Time) from KI35 Reporting Station
Overcast Overcast  
Wind Chill: 34°   Ceiling: 1400
Heat Index: 34°   Visibility: 10mi
Dew Point: 34°   Wind: 3mph
Humidity: 100%   Direction: 270°W
Pressure: 30.01"   Gusts: NA
Location:  36.8509°N, 83.1611°W
Report Text: KI35 270935Z AUTO 27003KT 10SM SCT003 BKN014 OVC020 01/01 A3001 RMK AO1
Loading
Personal Weather Stations






























Interactive Weather Map New forecast layout! Learn more

10-Day Weather Forecast

Advertisements
Track Severe Weather on mobile